createdAt,value
2019-03-20T00:01:59.445Z,60.83
2019-03-20T00:07:04.042Z,62.40
2019-03-20T00:12:08.120Z,55.05
2019-03-20T00:17:11.758Z,54.93
2019-03-20T00:22:15.432Z,49.50
2019-03-20T00:27:18.761Z,47.83
2019-03-20T00:32:23.764Z,51.58
2019-03-20T00:37:27.168Z,49.48
2019-03-20T00:42:30.562Z,54.45
2019-03-20T00:47:33.976Z,52.98
2019-03-20T00:52:38.142Z,53.78
2019-03-20T00:57:41.622Z,61.18
2019-03-20T01:02:45.017Z,50.10
2019-03-20T01:07:49.027Z,56.15
2019-03-20T01:12:53.317Z,54.20
2019-03-20T01:17:59.073Z,54.58
2019-03-20T01:23:04.069Z,50.55
2019-03-20T01:28:07.445Z,53.33
2019-03-20T01:33:12.166Z,51.83
2019-03-20T01:38:15.920Z,54.55
2019-03-20T01:43:19.301Z,60.03
2019-03-20T01:48:22.721Z,52.75
2019-03-20T01:53:27.919Z,58.05
2019-03-20T01:58:34.782Z,65.57
2019-03-20T02:03:38.093Z,60.28
2019-03-20T02:08:42.543Z,62.03
2019-03-20T02:13:45.969Z,62.90
2019-03-20T02:18:49.308Z,63.38
2019-03-20T02:23:52.807Z,64.60
2019-03-20T02:28:57.547Z,62.50
2019-03-20T02:34:01.832Z,51.75
2019-03-20T02:39:07.438Z,55.15
2019-03-20T02:44:12.294Z,55.45
2019-03-20T02:49:17.758Z,52.98
2019-03-20T02:54:22.330Z,47.27
2019-03-20T02:59:25.788Z,56.33
2019-03-20T03:04:30.876Z,52.17
2019-03-20T03:09:34.199Z,55.15
2019-03-20T03:14:37.524Z,58.95
2019-03-20T03:19:41.428Z,56.02
2019-03-20T03:24:46.137Z,51.13
2019-03-20T03:29:49.660Z,49.58
2019-03-20T03:34:53.058Z,48.58
2019-03-20T03:39:56.464Z,49.73
2019-03-20T03:45:00.583Z,49.63
2019-03-20T03:50:05.674Z,51.95
2019-03-20T03:55:11.403Z,50.85
2019-03-20T04:00:21.800Z,57.88
2019-03-20T04:05:30.567Z,55.88
2019-03-20T04:10:34.432Z,58.27
2019-03-20T04:15:45.820Z,52.50
2019-03-20T04:20:49.551Z,60.35
2019-03-20T04:25:54.350Z,56.30
2019-03-20T04:30:58.576Z,68.85
2019-03-20T04:36:02.038Z,61.13
2019-03-20T04:41:05.494Z,57.45
2019-03-20T04:46:08.812Z,61.28
2019-03-20T04:51:12.143Z,60.83
2019-03-20T04:56:17.454Z,65.37
2019-03-20T05:01:20.945Z,70.50
2019-03-20T05:06:25.014Z,68.12
2019-03-20T05:11:29.513Z,65.30
2019-03-20T05:16:34.715Z,75.28
2019-03-20T05:21:38.180Z,69.20
2019-03-20T05:26:41.583Z,65.57
2019-03-20T05:31:46.373Z,73.00
2019-03-20T05:36:50.518Z,62.13
2019-03-20T05:41:53.830Z,67.03
2019-03-20T05:46:57.254Z,64.67
2019-03-20T05:52:01.147Z,61.68
2019-03-20T05:57:07.756Z,65.03
2019-03-20T06:02:15.863Z,60.95
2019-03-20T06:07:21.719Z,51.70
2019-03-20T06:12:31.918Z,53.40
2019-03-20T06:17:37.386Z,52.73
2019-03-20T06:22:52.736Z,52.20
2019-03-20T06:27:56.166Z,58.33
2019-03-20T06:33:01.182Z,51.60
2019-03-20T06:38:04.656Z,43.30
2019-03-20T06:43:08.693Z,44.98
2019-03-20T06:48:14.152Z,48.87
2019-03-20T06:53:21.170Z,47.30
2019-03-20T06:58:24.855Z,43.52
2019-03-20T07:03:45.500Z,42.35
2019-03-20T07:08:58.839Z,49.45
2019-03-20T07:14:04.441Z,48.10
2019-03-20T07:19:08.904Z,40.50
2019-03-20T07:24:12.355Z,42.13
2019-03-20T07:29:24.594Z,38.13
2019-03-20T07:34:23.327Z,33.67
2019-03-20T07:39:28.444Z,29.35
2019-03-20T07:44:31.863Z,39.73
2019-03-20T07:49:35.402Z,34.73
2019-03-20T07:54:38.767Z,39.95
2019-03-20T07:59:42.197Z,32.75
2019-03-20T08:04:45.621Z,37.13
2019-03-20T08:09:49.150Z,33.20
2019-03-20T08:14:53.203Z,35.17
2019-03-20T08:19:56.503Z,31.00
2019-03-20T08:24:59.818Z,31.00
2019-03-20T08:30:05.057Z,28.27
2019-03-20T08:35:10.513Z,27.95
2019-03-20T08:40:18.810Z,19.55
2019-03-20T08:45:22.203Z,22.37
2019-03-20T08:50:26.329Z,20.50
2019-03-20T08:55:29.614Z,22.02
2019-03-20T09:00:33.313Z,20.15
2019-03-20T09:05:38.003Z,21.55
2019-03-20T09:10:41.384Z,19.65
2019-03-20T09:15:46.803Z,18.65
2019-03-20T09:20:51.106Z,20.02
2019-03-20T09:25:54.547Z,18.15
2019-03-20T09:30:57.858Z,12.15
2019-03-20T09:36:01.908Z,12.33
2019-03-20T09:41:05.443Z,15.43
2019-03-20T09:46:08.874Z,13.35
2019-03-20T09:51:12.181Z,15.10
2019-03-20T09:56:16.956Z,19.45
2019-03-20T10:01:20.599Z,14.33
2019-03-20T10:06:23.992Z,16.40
2019-03-20T10:11:27.366Z,16.65
2019-03-20T10:16:31.464Z,18.95
2019-03-20T10:21:34.960Z,16.17
2019-03-20T10:26:38.373Z,19.80
2019-03-20T10:31:43.751Z,22.67
2019-03-20T10:36:47.135Z,17.60
2019-03-20T10:41:50.452Z,23.73
2019-03-20T10:46:54.392Z,17.37
2019-03-20T10:52:00.069Z,16.93
2019-03-20T10:57:03.440Z,15.98
2019-03-20T11:02:06.728Z,14.87
2019-03-20T11:07:10.122Z,14.20
2019-03-20T11:12:13.522Z,11.85
2019-03-20T11:17:18.618Z,11.57
2019-03-20T11:22:23.567Z,12.78
2019-03-20T11:27:52.190Z,15.68
2019-03-20T11:32:56.710Z,9.10
2019-03-20T11:38:02.690Z,17.07
2019-03-20T11:43:06.916Z,14.53
2019-03-20T11:48:10.313Z,11.25
2019-03-20T11:53:13.730Z,9.28
2019-03-20T11:58:17.616Z,16.12
2019-03-20T12:03:21.889Z,14.60
2019-03-20T12:08:26.075Z,10.78
2019-03-20T12:13:30.356Z,14.30
2019-03-20T12:18:33.649Z,12.53
2019-03-20T12:23:36.947Z,14.35
2019-03-20T12:28:40.368Z,14.65
2019-03-20T12:33:44.516Z,12.78
2019-03-20T12:38:47.872Z,11.85
2019-03-20T12:43:51.214Z,15.03
2019-03-20T12:48:54.515Z,14.28
2019-03-20T12:53:57.856Z,10.50
2019-03-20T12:59:02.812Z,15.20
2019-03-20T13:04:06.193Z,10.80
2019-03-20T13:09:09.507Z,13.28
2019-03-20T13:14:13.749Z,11.78
2019-03-20T13:19:17.173Z,12.65
2019-03-20T13:24:22.841Z,14.73
2019-03-20T13:29:26.147Z,18.48
2019-03-20T13:34:29.649Z,13.45
2019-03-20T13:39:32.965Z,16.02
2019-03-20T13:44:37.461Z,15.28
2019-03-20T13:49:40.769Z,18.98
2019-03-20T13:54:44.249Z,16.17
2019-03-20T13:59:48.053Z,16.93
2019-03-20T14:04:52.590Z,18.98
2019-03-20T14:09:55.916Z,18.37
2019-03-20T14:15:02.711Z,15.83
2019-03-20T14:20:14.924Z,17.67
2019-03-20T14:25:20.613Z,18.62
2019-03-20T14:30:31.061Z,13.43
2019-03-20T14:35:34.459Z,14.18
2019-03-20T14:40:38.341Z,14.60
2019-03-20T14:45:42.553Z,16.05
2019-03-20T14:50:47.189Z,12.93
2019-03-20T14:55:50.613Z,15.60
2019-03-20T15:00:54.274Z,15.15
2019-03-20T15:05:57.636Z,15.15
2019-03-20T15:11:00.994Z,12.63
2019-03-20T15:16:08.844Z,19.50
2019-03-20T15:21:12.240Z,16.52
2019-03-20T15:26:16.426Z,18.23
2019-03-20T15:31:19.864Z,17.70
2019-03-20T15:36:24.713Z,14.93
2019-03-20T15:41:28.389Z,15.80
2019-03-20T15:46:31.697Z,18.42
2019-03-20T15:51:36.868Z,19.15
2019-03-20T15:56:40.305Z,21.42
2019-03-20T16:01:44.192Z,13.00
2019-03-20T16:06:48.051Z,17.77
2019-03-20T16:11:52.941Z,13.38
2019-03-20T16:16:58.114Z,24.57
2019-03-20T16:22:03.183Z,17.17
2019-03-20T16:27:17.818Z,18.07
2019-03-20T16:32:21.931Z,24.92
2019-03-20T16:37:25.692Z,24.32
2019-03-20T16:42:44.548Z,21.80
2019-03-20T16:47:48.379Z,25.20
2019-03-20T16:52:52.648Z,22.65
2019-03-20T16:57:58.428Z,26.52
2019-03-20T17:03:03.874Z,22.82
2019-03-20T17:08:08.128Z,23.02
2019-03-20T17:13:11.436Z,26.12
2019-03-20T17:18:15.852Z,23.70
2019-03-20T17:23:20.941Z,35.10
2019-03-20T17:28:25.674Z,40.52
2019-03-20T17:33:29.942Z,34.60
2019-03-20T17:38:33.800Z,35.35
2019-03-20T17:43:41.216Z,33.60
2019-03-20T17:48:47.050Z,40.48
2019-03-20T17:53:50.458Z,51.20
2019-03-20T17:58:55.287Z,64.12
2019-03-20T18:03:58.708Z,73.72
2019-03-20T18:09:02.015Z,51.40
2019-03-20T18:14:05.439Z,41.30
2019-03-20T18:19:12.088Z,51.55
2019-03-20T18:24:15.454Z,45.95
2019-03-20T18:29:19.601Z,49.93
2019-03-20T18:34:23.483Z,50.03
2019-03-20T18:39:27.349Z,38.28
2019-03-20T18:44:30.700Z,41.58
2019-03-20T18:49:34.070Z,39.30
2019-03-20T18:54:37.561Z,36.17
2019-03-20T18:59:41.987Z,32.88
2019-03-20T19:04:46.369Z,40.65
2019-03-20T19:09:53.667Z,45.75
2019-03-20T19:14:57.264Z,42.38
2019-03-20T19:20:01.534Z,46.10
2019-03-20T19:25:14.860Z,51.18
2019-03-20T19:30:21.519Z,46.23
2019-03-20T19:35:25.771Z,43.10
2019-03-20T19:40:34.668Z,41.02
2019-03-20T19:45:38.029Z,37.60
2019-03-20T19:50:41.590Z,35.55
2019-03-20T19:55:45.481Z,32.15
2019-03-20T20:00:51.324Z,37.60
2019-03-20T20:05:56.355Z,33.65
2019-03-20T20:10:59.737Z,32.55
2019-03-20T20:16:03.131Z,43.48
2019-03-20T20:21:07.217Z,43.65
2019-03-20T20:26:13.302Z,41.30
2019-03-20T20:31:16.907Z,33.90
2019-03-20T20:36:21.715Z,33.48
2019-03-20T20:41:25.306Z,28.60
2019-03-20T20:46:28.733Z,34.25
2019-03-20T20:51:32.156Z,31.45
2019-03-20T20:56:37.265Z,31.20
2019-03-20T21:01:41.578Z,32.30
2019-03-20T21:06:47.590Z,38.53
2019-03-20T21:11:52.763Z,37.88
2019-03-20T21:16:57.960Z,29.20
2019-03-20T21:22:17.066Z,36.00
2019-03-20T21:27:42.700Z,35.05
2019-03-20T21:32:52.750Z,36.48
2019-03-20T21:38:07.683Z,36.03
2019-03-20T21:43:49.802Z,30.10
2019-03-20T21:48:53.206Z,36.58
2019-03-20T21:54:14.708Z,32.60
2019-03-20T21:59:42.053Z,29.95
2019-03-20T22:04:46.451Z,26.02
2019-03-20T22:09:56.020Z,34.03
2019-03-20T22:15:06.397Z,37.88
2019-03-20T22:20:22.164Z,31.37
2019-03-20T22:25:51.298Z,35.75
2019-03-20T22:30:54.783Z,28.23
2019-03-20T22:35:59.912Z,27.05
2019-03-20T22:41:15.488Z,25.00
2019-03-20T22:46:57.252Z,25.65
2019-03-20T22:52:10.224Z,25.12
2019-03-20T22:57:35.021Z,25.08
2019-03-20T23:02:56.858Z,25.52
2019-03-20T23:08:00.835Z,22.45
2019-03-20T23:13:04.574Z,24.77
2019-03-20T23:18:08.093Z,22.15
2019-03-20T23:23:11.584Z,21.48
2019-03-20T23:28:15.097Z,22.60
2019-03-20T23:33:18.475Z,20.10
2019-03-20T23:38:22.403Z,22.35
2019-03-20T23:43:25.710Z,21.85
2019-03-20T23:48:35.681Z,25.30
2019-03-20T23:58:46.617Z,34.13
